Time;durP1;ratioP1;P1;durP2;ratioP2;P2;SDS_P1;SDS_P2;PMS_P1;PMS_P2;Temp;Humidity;BMP_temperature;BMP_pressure;BME280_temperature;BME280_humidity;BME280_pressure;Samples;Min_cycle;Max_cycle;Signal;HPM_P1;HPM_P2
2022/01/07 00:00:59;;;;;;;1.80;1.70;;;16.90;36.10;;;;;;5070307;28;20455;-67
2022/01/07 00:03:26;;;;;;;1.30;1.20;;;16.90;36.10;;;;;;5052548;28;20429;-67
2022/01/07 00:05:51;;;;;;;1.40;1.30;;;16.90;36.10;;;;;;5069186;28;20477;-67
2022/01/07 00:08:17;;;;;;;1.30;1.20;;;16.90;36.10;;;;;;5070599;28;20435;-67
2022/01/07 00:10:43;;;;;;;1.33;1.13;;;16.90;36.10;;;;;;5070454;28;20666;-67
2022/01/07 00:13:09;;;;;;;1.57;1.47;;;16.90;36.10;;;;;;5053160;28;20209;-67
2022/01/07 00:15:34;;;;;;;1.40;1.30;;;16.90;36.00;;;;;;5070146;28;20304;-67
2022/01/07 00:18:00;;;;;;;1.23;1.13;;;16.90;36.10;;;;;;5070291;28;20659;-67
2022/01/07 00:20:27;;;;;;;1.60;1.50;;;16.90;36.10;;;;;;5069918;28;20229;-67
2022/01/07 00:22:53;;;;;;;1.30;1.20;;;16.80;36.10;;;;;;5070268;28;20225;-67
2022/01/07 00:25:21;;;;;;;1.30;1.20;;;16.90;36.10;;;;;;5070193;28;20530;-67
2022/01/07 00:27:46;;;;;;;1.50;1.40;;;16.80;36.00;;;;;;5069017;28;20570;-67
2022/01/07 00:30:13;;;;;;;1.33;1.10;;;16.90;36.10;;;;;;5069972;28;20479;-67
2022/01/07 00:32:39;;;;;;;1.40;1.30;;;16.80;36.00;;;;;;5070283;28;20312;-67
2022/01/07 00:35:07;;;;;;;1.60;1.40;;;16.80;36.00;;;;;;5070192;28;20929;-67
2022/01/07 00:37:33;;;;;;;1.23;1.13;;;16.90;36.10;;;;;;5069291;28;20581;-67
2022/01/07 00:39:58;;;;;;;1.57;1.47;;;16.90;36.10;;;;;;5069704;28;20447;-67
2022/01/07 00:42:24;;;;;;;1.30;1.20;;;16.80;36.00;;;;;;5069527;28;20206;-67
2022/01/07 00:44:50;;;;;;;1.40;1.30;;;16.80;36.00;;;;;;5069721;28;20682;-67
2022/01/07 00:47:16;;;;;;;1.40;1.30;;;16.80;36.00;;;;;;5051835;28;20210;-67
2022/01/07 00:49:43;;;;;;;1.30;1.20;;;16.80;36.00;;;;;;5069551;28;20209;-67
2022/01/07 00:52:08;;;;;;;1.40;1.20;;;16.80;35.90;;;;;;5052116;28;21004;-67
2022/01/07 00:54:34;;;;;;;1.33;1.23;;;16.80;36.00;;;;;;5051645;28;20517;-67
2022/01/07 00:56:59;;;;;;;1.20;1.10;;;16.80;36.00;;;;;;5069610;28;20218;-67
2022/01/07 00:59:25;;;;;;;1.30;1.20;;;16.80;36.00;;;;;;5069473;28;20214;-67
2022/01/07 01:01:51;;;;;;;1.50;1.23;;;16.80;35.90;;;;;;5067388;28;20241;-67
2022/01/07 01:04:18;;;;;;;1.63;1.23;;;16.80;36.00;;;;;;5051132;28;20241;-67
2022/01/07 01:06:45;;;;;;;1.30;1.20;;;16.80;36.00;;;;;;5069223;28;20218;-67
2022/01/07 01:09:12;;;;;;;1.40;1.30;;;16.80;36.00;;;;;;5069622;28;20421;-67
2022/01/07 01:11:38;;;;;;;1.43;1.33;;;16.90;36.10;;;;;;5068623;28;20556;-67
2022/01/07 01:14:05;;;;;;;1.30;1.20;;;16.80;36.00;;;;;;5069645;28;20525;-67
2022/01/07 01:16:30;;;;;;;1.30;1.20;;;16.80;36.00;;;;;;5069247;28;20450;-67
2022/01/07 01:18:56;;;;;;;1.60;1.30;;;16.80;36.00;;;;;;5069294;28;20426;-67
2022/01/07 01:21:22;;;;;;;1.17;1.07;;;16.80;36.00;;;;;;5051052;28;20224;-67
2022/01/07 01:23:50;;;;;;;1.20;1.10;;;16.80;36.00;;;;;;5069374;28;20303;-67
2022/01/07 01:26:18;;;;;;;1.37;1.27;;;16.80;36.00;;;;;;5069184;28;20220;-67
2022/01/07 01:28:44;;;;;;;1.40;1.30;;;16.80;36.00;;;;;;5069332;28;20470;-67
2022/01/07 01:31:10;;;;;;;1.30;1.20;;;16.80;36.00;;;;;;5069295;28;20413;-67
2022/01/07 01:33:36;;;;;;;1.27;1.10;;;16.80;36.80;;;;;;5069711;28;20475;-67
2022/01/07 01:36:02;;;;;;;1.60;1.50;;;16.80;36.00;;;;;;5069298;28;20911;-67
2022/01/07 01:38:30;;;;;;;1.40;1.30;;;16.80;36.00;;;;;;5069046;28;20245;-67
2022/01/07 01:40:56;;;;;;;1.30;1.20;;;16.80;36.00;;;;;;5068804;28;20462;-67
2022/01/07 01:43:21;;;;;;;1.43;1.10;;;16.80;36.00;;;;;;5068822;28;20429;-67
2022/01/07 01:45:47;;;;;;;1.40;1.30;;;16.80;36.10;;;;;;5067806;28;20568;-67
2022/01/07 01:48:13;;;;;;;1.30;1.20;;;16.80;36.10;;;;;;5068806;28;20229;-67
2022/01/07 01:50:38;;;;;;;1.40;1.27;;;16.80;36.00;;;;;;5069576;28;20206;-67
2022/01/07 01:53:04;;;;;;;1.30;1.20;;;16.80;36.00;;;;;;5069106;28;20553;-67
2022/01/07 01:55:30;;;;;;;1.47;1.30;;;16.80;36.00;;;;;;5068931;28;20237;-67
2022/01/07 01:57:57;;;;;;;1.30;1.20;;;16.80;36.10;;;;;;5069006;28;20220;-67
2022/01/07 02:00:24;;;;;;;1.80;1.70;;;16.80;36.10;;;;;;5068654;28;20226;-67
2022/01/07 02:02:50;;;;;;;1.00;1.00;;;16.80;36.10;;;;;;5068950;28;20508;-67
2022/01/07 02:05:16;;;;;;;1.47;1.20;;;16.80;36.10;;;;;;5068774;28;20541;-67
2022/01/07 02:07:42;;;;;;;1.23;1.13;;;16.80;36.00;;;;;;5051094;28;20245;-67
2022/01/07 02:10:13;;;;;;;1.27;1.17;;;16.80;36.10;;;;;;5069611;28;20218;-67
2022/01/07 02:12:39;;;;;;;1.30;1.20;;;16.80;36.10;;;;;;5067739;28;20221;-67
2022/01/07 02:15:06;;;;;;;1.30;1.20;;;16.80;36.10;;;;;;5068891;28;20433;-67
2022/01/07 02:17:32;;;;;;;1.30;1.20;;;16.80;36.20;;;;;;5068467;28;20442;-67
2022/01/07 02:19:57;;;;;;;1.20;1.10;;;16.80;36.00;;;;;;5068709;28;20924;-67
2022/01/07 02:22:23;;;;;;;1.40;1.30;;;16.80;36.10;;;;;;5068733;28;20217;-68
2022/01/07 02:24:50;;;;;;;1.20;1.10;;;16.80;36.00;;;;;;5072365;28;20265;-67
2022/01/07 02:27:17;;;;;;;1.60;1.50;;;16.80;36.10;;;;;;5072446;28;20444;-67
2022/01/07 02:29:44;;;;;;;1.40;1.30;;;16.80;36.10;;;;;;5072420;28;20921;-67
2022/01/07 02:32:10;;;;;;;1.40;1.30;;;16.80;35.90;;;;;;5053867;28;20832;-67
2022/01/07 02:34:36;;;;;;;1.33;1.23;;;16.80;36.00;;;;;;5072433;28;20466;-67
2022/01/07 02:37:02;;;;;;;1.23;1.13;;;16.80;35.90;;;;;;5072406;28;20213;-67
2022/01/07 02:39:28;;;;;;;1.07;0.97;;;16.80;36.00;;;;;;5072036;28;20490;-67
2022/01/07 02:41:54;;;;;;;1.27;1.17;;;16.80;36.00;;;;;;5072111;28;20439;-67
2022/01/07 02:44:19;;;;;;;1.30;1.20;;;16.80;35.90;;;;;;5072155;28;20430;-67
2022/01/07 02:46:45;;;;;;;1.13;1.03;;;16.80;35.90;;;;;;5072207;28;20220;-67
2022/01/07 02:49:18;;;;;;;1.20;1.10;;;16.80;35.90;;;;;;5071886;28;20214;-67
2022/01/07 02:51:45;;;;;;;1.53;1.43;;;16.80;35.90;;;;;;5071870;28;20221;-67
2022/01/07 02:54:11;;;;;;;1.87;1.30;;;16.80;35.90;;;;;;5071952;28;20416;-67
2022/01/07 02:56:37;;;;;;;1.40;1.30;;;16.80;35.90;;;;;;5072434;28;20454;-67
2022/01/07 02:59:05;;;;;;;1.27;1.17;;;16.80;35.90;;;;;;5071835;28;20427;-67
2022/01/07 03:01:31;;;;;;;1.23;1.13;;;16.80;35.90;;;;;;5071797;28;20421;-67
2022/01/07 03:03:57;;;;;;;1.10;1.00;;;16.80;35.80;;;;;;5069296;28;20460;-67
2022/01/07 03:06:22;;;;;;;1.20;1.10;;;16.80;35.80;;;;;;5071433;28;20681;-67
2022/01/07 03:08:50;;;;;;;1.20;1.10;;;16.80;35.80;;;;;;5071690;28;20491;-67
2022/01/07 03:11:16;;;;;;;1.10;1.00;;;16.80;35.80;;;;;;5071765;28;20224;-67
2022/01/07 03:13:41;;;;;;;1.23;1.13;;;16.80;35.80;;;;;;5071668;28;20454;-67
2022/01/07 03:16:07;;;;;;;1.20;1.10;;;16.80;35.80;;;;;;5072028;28;20470;-67
2022/01/07 03:18:33;;;;;;;1.30;1.20;;;16.80;35.70;;;;;;5071734;28;20697;-68
2022/01/07 03:21:00;;;;;;;1.57;1.10;;;16.80;35.80;;;;;;5070373;28;20263;-67
2022/01/07 03:23:26;;;;;;;1.30;1.20;;;16.80;35.80;;;;;;5070942;28;20446;-68
2022/01/07 03:25:53;;;;;;;1.20;1.10;;;16.80;36.60;;;;;;5053448;28;20798;-67
2022/01/07 03:28:18;;;;;;;1.10;1.00;;;16.80;35.80;;;;;;5071088;28;20458;-68
2022/01/07 03:30:44;;;;;;;1.17;1.07;;;16.80;35.80;;;;;;5071302;28;20447;-67
2022/01/07 03:33:10;;;;;;;1.20;1.10;;;16.80;35.80;;;;;;5071720;28;20650;-67
2022/01/07 03:35:36;;;;;;;1.30;1.20;;;16.80;35.70;;;;;;5070521;28;20230;-67
2022/01/07 03:38:02;;;;;;;1.30;1.20;;;16.80;35.70;;;;;;5071279;28;20221;-67
2022/01/07 03:40:29;;;;;;;1.13;1.03;;;16.80;35.70;;;;;;5070984;28;20882;-67
2022/01/07 03:42:55;;;;;;;1.20;1.10;;;16.80;35.70;;;;;;5070856;28;20414;-67
2022/01/07 03:45:21;;;;;;;1.80;1.23;;;16.80;35.70;;;;;;5070916;28;20417;-67
2022/01/07 03:47:48;;;;;;;1.17;1.07;;;16.80;35.70;;;;;;5070734;28;20436;-67
2022/01/07 03:50:16;;;;;;;1.03;0.93;;;16.80;35.70;;;;;;5070827;28;20421;-67
2022/01/07 03:52:43;;;;;;;1.20;1.10;;;16.80;35.70;;;;;;5067590;28;20426;-67
2022/01/07 03:55:12;;;;;;;1.20;1.00;;;16.80;35.70;;;;;;5071149;28;20433;-67
2022/01/07 03:57:38;;;;;;;1.17;1.00;;;16.80;35.70;;;;;;5070320;28;20417;-67
2022/01/07 04:00:13;;;;;;;1.10;1.00;;;16.80;35.70;;;;;;5070496;28;20438;-67
2022/01/07 04:02:39;;;;;;;0.90;0.90;;;16.80;35.70;;;;;;5067452;28;20453;-67
2022/01/07 04:05:06;;;;;;;2.30;1.27;;;16.80;35.70;;;;;;5070508;28;20546;-67
2022/01/07 04:07:32;;;;;;;1.33;1.20;;;16.80;35.70;;;;;;5070440;28;20421;-68
2022/01/07 04:09:59;;;;;;;1.20;1.10;;;16.80;35.70;;;;;;5070451;28;20763;-67
2022/01/07 04:12:25;;;;;;;1.33;1.13;;;16.80;35.70;;;;;;5070205;28;20214;-67
2022/01/07 04:15:02;;;;;;;1.00;0.90;;;16.80;35.70;;;;;;5070266;28;20451;-67
2022/01/07 04:17:27;;;;;;;1.10;1.00;;;16.80;35.70;;;;;;5068815;28;20417;-67
2022/01/07 04:19:53;;;;;;;1.47;1.37;;;16.80;35.80;;;;;;5070251;28;20491;-67
2022/01/07 04:22:18;;;;;;;1.10;1.00;;;16.80;35.80;;;;;;5070142;28;20216;-67
2022/01/07 04:24:44;;;;;;;1.23;1.13;;;16.80;35.80;;;;;;5070303;28;20248;-68
2022/01/07 04:27:10;;;;;;;1.20;1.10;;;16.80;35.70;;;;;;5070879;28;20305;-67
2022/01/07 04:29:35;;;;;;;0.93;0.90;;;16.80;35.70;;;;;;5069998;28;20225;-67
2022/01/07 04:32:02;;;;;;;1.30;1.20;;;16.80;35.70;;;;;;5070099;28;20218;-68
2022/01/07 04:34:28;;;;;;;1.10;1.00;;;16.80;35.80;;;;;;5069664;28;20220;-67
2022/01/07 04:36:53;;;;;;;1.17;1.07;;;16.80;35.70;;;;;;5069887;28;20514;-67
2022/01/07 04:39:19;;;;;;;1.10;1.00;;;16.80;36.50;;;;;;5069725;28;20504;-67
2022/01/07 04:41:45;;;;;;;2.17;0.93;;;16.80;35.70;;;;;;5070055;28;20209;-67
2022/01/07 04:44:10;;;;;;;1.10;1.10;;;16.80;35.70;;;;;;5051955;28;20275;-67
2022/01/07 04:46:36;;;;;;;1.20;1.10;;;16.80;35.80;;;;;;5070168;28;20210;-67
2022/01/07 04:49:02;;;;;;;0.93;0.93;;;16.80;35.80;;;;;;5069990;28;20216;-67
2022/01/07 04:51:29;;;;;;;1.53;1.00;;;16.80;35.70;;;;;;5051605;28;20217;-68
2022/01/07 04:53:55;;;;;;;1.20;1.10;;;16.80;35.70;;;;;;5069745;28;20429;-67
2022/01/07 04:56:20;;;;;;;1.20;1.10;;;16.80;35.70;;;;;;5069567;28;20428;-67
2022/01/07 04:58:46;;;;;;;1.20;1.10;;;16.80;35.70;;;;;;5069776;28;20213;-67
2022/01/07 05:01:11;;;;;;;1.27;1.00;;;16.80;35.70;;;;;;5069550;28;20244;-67
2022/01/07 05:03:37;;;;;;;1.00;1.00;;;16.80;35.80;;;;;;5069541;28;20233;-68
2022/01/07 05:06:26;;;;;;;1.10;1.00;;;16.80;35.70;;;;;;5069640;28;20658;-67
2022/01/07 05:08:48;;;;;;;1.27;1.17;;;16.80;35.70;;;;;;5068823;28;20312;-68
2022/01/07 05:11:14;;;;;;;1.10;1.00;;;16.80;35.80;;;;;;5068785;28;20530;-67
2022/01/07 05:13:39;;;;;;;0.93;0.90;;;16.80;35.70;;;;;;5069964;28;20213;-68
2022/01/07 05:16:05;;;;;;;1.10;1.00;;;16.70;35.60;;;;;;5069560;28;20237;-68
2022/01/07 05:18:31;;;;;;;1.10;1.00;;;16.80;35.70;;;;;;5069288;28;20653;-68
2022/01/07 05:20:57;;;;;;;1.17;1.07;;;16.80;35.60;;;;;;5069333;28;20221;-67
2022/01/07 05:23:23;;;;;;;1.00;1.00;;;16.80;35.60;;;;;;5069520;28;20226;-67
2022/01/07 05:25:49;;;;;;;1.20;1.10;;;16.80;35.70;;;;;;5051286;28;20245;-68
2022/01/07 05:28:14;;;;;;;1.00;0.90;;;16.80;35.60;;;;;;5069242;28;20477;-68
2022/01/07 05:30:40;;;;;;;1.83;1.10;;;16.80;35.60;;;;;;5069136;28;20631;-67
2022/01/07 05:33:06;;;;;;;0.90;0.90;;;16.80;35.50;;;;;;5069772;28;20217;-67
2022/01/07 05:35:31;;;;;;;1.57;1.47;;;16.80;35.50;;;;;;5069092;28;20253;-68
2022/01/07 05:37:57;;;;;;;1.00;0.90;;;16.80;35.60;;;;;;5069178;28;20701;-68
2022/01/07 05:40:23;;;;;;;1.37;1.27;;;16.80;35.50;;;;;;5068764;28;20294;-68
2022/01/07 05:42:48;;;;;;;1.07;0.97;;;16.80;35.50;;;;;;5067715;28;20682;-68
2022/01/07 05:45:14;;;;;;;0.90;0.90;;;16.80;35.50;;;;;;5068694;28;20225;-68
2022/01/07 05:47:40;;;;;;;1.20;1.00;;;16.80;35.50;;;;;;5067233;28;20214;-68
2022/01/07 05:50:07;;;;;;;0.90;0.90;;;16.80;35.50;;;;;;5069528;28;20218;-67
2022/01/07 05:52:32;;;;;;;1.10;1.00;;;16.80;35.50;;;;;;5068974;28;20266;-67
2022/01/07 05:54:58;;;;;;;0.83;0.83;;;16.80;35.40;;;;;;5068963;28;20516;-68
2022/01/07 05:57:24;;;;;;;1.00;1.00;;;16.80;35.50;;;;;;5068678;28;20298;-68
2022/01/07 05:59:49;;;;;;;1.10;1.00;;;16.80;35.50;;;;;;5072872;28;20213;-67
2022/01/07 06:02:15;;;;;;;1.10;1.00;;;16.80;35.50;;;;;;5072865;28;20213;-67
2022/01/07 06:04:40;;;;;;;1.00;0.90;;;16.80;35.40;;;;;;5072711;28;20572;-67
2022/01/07 06:07:06;;;;;;;1.00;0.90;;;16.80;35.40;;;;;;5073407;28;20224;-68
2022/01/07 06:09:33;;;;;;;1.07;0.97;;;16.80;35.50;;;;;;5072344;28;20218;-68
2022/01/07 06:11:59;;;;;;;1.07;1.00;;;16.80;35.40;;;;;;5072819;28;20225;-68
2022/01/07 06:14:26;;;;;;;1.00;0.90;;;16.80;35.40;;;;;;5072407;28;20816;-68
2022/01/07 06:16:52;;;;;;;1.20;1.10;;;16.80;35.40;;;;;;5072628;28;20279;-68
2022/01/07 06:19:18;;;;;;;1.10;1.00;;;16.80;35.40;;;;;;5072823;28;20413;-68
2022/01/07 06:21:43;;;;;;;0.90;0.90;;;16.80;35.30;;;;;;5072501;28;20216;-68
2022/01/07 06:24:09;;;;;;;1.10;1.00;;;16.80;35.30;;;;;;5072981;28;20513;-68
2022/01/07 06:26:35;;;;;;;1.10;1.00;;;16.80;35.30;;;;;;5072049;28;20697;-68
2022/01/07 06:29:00;;;;;;;1.03;1.00;;;16.80;35.30;;;;;;5072320;28;20226;-68
2022/01/07 06:31:26;;;;;;;0.80;0.80;;;16.80;35.30;;;;;;5072169;28;20251;-68
2022/01/07 06:33:52;;;;;;;0.97;0.90;;;16.80;35.30;;;;;;5072473;28;20217;-68
2022/01/07 06:36:17;;;;;;;0.80;0.80;;;16.80;35.30;;;;;;5072103;28;20233;-68
2022/01/07 06:38:43;;;;;;;0.83;0.83;;;16.80;35.30;;;;;;5072231;28;20213;-68
2022/01/07 06:41:08;;;;;;;1.10;0.97;;;16.80;35.30;;;;;;5070525;28;20651;-68
2022/01/07 06:43:34;;;;;;;1.20;1.00;;;16.80;35.30;;;;;;5072214;28;20291;-68
2022/01/07 06:46:00;;;;;;;1.10;1.00;;;16.80;35.30;;;;;;5072394;28;20234;-67
2022/01/07 06:48:25;;;;;;;1.63;0.90;;;16.80;35.30;;;;;;5071895;28;20250;-67
2022/01/07 06:50:51;;;;;;;1.07;0.97;;;16.80;35.30;;;;;;5053969;28;20226;-68
2022/01/07 06:53:16;;;;;;;0.90;0.90;;;16.80;35.30;;;;;;5071890;28;20218;-68
2022/01/07 06:55:42;;;;;;;0.90;0.90;;;16.80;35.30;;;;;;5071838;28;20234;-68
2022/01/07 06:58:08;;;;;;;1.00;0.90;;;16.80;35.30;;;;;;5072539;28;20214;-68
2022/01/07 07:00:33;;;;;;;0.93;0.80;;;16.80;35.30;;;;;;5071795;28;20560;-67
2022/01/07 07:02:59;;;;;;;1.00;0.90;;;16.80;35.20;;;;;;5071757;28;20217;-68
2022/01/07 07:05:25;;;;;;;0.87;0.87;;;16.80;35.20;;;;;;5071385;28;20241;-68
2022/01/07 07:07:51;;;;;;;1.10;1.00;;;16.80;36.00;;;;;;5071548;28;20210;-67
2022/01/07 07:10:17;;;;;;;1.00;0.90;;;16.80;35.20;;;;;;5052458;28;20569;-68
2022/01/07 07:12:42;;;;;;;1.00;0.90;;;16.80;35.20;;;;;;5071547;28;20417;-67
2022/01/07 07:15:08;;;;;;;1.33;1.00;;;16.80;36.00;;;;;;5071899;28;20753;-68
2022/01/07 07:17:34;;;;;;;0.90;0.90;;;16.80;35.20;;;;;;5071560;28;20210;-68
2022/01/07 07:20:00;;;;;;;1.00;1.00;;;16.80;35.20;;;;;;5053815;28;20481;-67
2022/01/07 07:22:26;;;;;;;1.20;1.10;;;16.80;35.30;;;;;;5071442;28;20225;-68
2022/01/07 07:24:52;;;;;;;0.80;0.80;;;16.80;35.20;;;;;;5071527;28;20429;-67
2022/01/07 07:27:19;;;;;;;0.83;0.83;;;16.80;35.20;;;;;;5071344;28;20275;-68
2022/01/07 07:29:45;;;;;;;1.20;1.10;;;16.80;35.20;;;;;;5071522;28;20271;-68
2022/01/07 07:32:11;;;;;;;0.93;0.90;;;16.80;35.20;;;;;;5070852;28;20533;-68
2022/01/07 07:37:05;;;;;;;1.30;1.20;;;16.80;35.20;;;;;;5071001;28;20425;-68
2022/01/07 07:39:32;;;;;;;0.90;0.80;;;16.80;35.20;;;;;;5071131;28;20504;-68
2022/01/07 07:41:57;;;;;;;0.80;0.80;;;16.80;35.20;;;;;;5071135;28;20241;-67
2022/01/07 07:44:23;;;;;;;1.00;0.90;;;16.80;35.20;;;;;;5070760;28;20940;-68
2022/01/07 07:46:48;;;;;;;1.20;0.80;;;16.80;35.10;;;;;;5071148;28;20288;-67
2022/01/07 07:49:15;;;;;;;0.90;0.80;;;16.80;35.20;;;;;;5071155;28;20547;-68
2022/01/07 07:51:41;;;;;;;1.00;1.00;;;16.80;35.10;;;;;;5052997;28;20699;-67
2022/01/07 07:54:08;;;;;;;0.77;0.77;;;16.80;35.10;;;;;;5071579;28;20547;-67
2022/01/07 07:56:34;;;;;;;1.00;0.90;;;16.80;35.10;;;;;;5070458;28;20506;-68
2022/01/07 07:59:00;;;;;;;1.03;0.93;;;16.80;35.10;;;;;;5070730;28;20918;-68
2022/01/07 08:01:26;;;;;;;0.90;0.90;;;16.80;35.10;;;;;;5070253;28;20417;-67
2022/01/07 08:03:52;;;;;;;1.00;0.80;;;16.80;35.10;;;;;;5070768;28;20642;-67
2022/01/07 08:06:17;;;;;;;0.80;0.80;;;16.80;35.10;;;;;;5070660;28;20925;-66
2022/01/07 08:08:43;;;;;;;0.93;0.87;;;16.80;35.10;;;;;;5070653;28;20222;-67
2022/01/07 08:11:11;;;;;;;1.10;1.00;;;16.80;35.00;;;;;;5071093;28;20210;-68
2022/01/07 08:16:23;;;;;;;0.80;0.80;;;16.80;34.90;;;;;;5068397;28;20465;-67
2022/01/07 08:18:54;;;;;;;2.60;1.00;;;16.80;34.90;;;;;;5049930;28;20871;-67
2022/01/07 08:21:24;;;;;;;1.20;0.90;;;16.80;34.90;;;;;;5069734;28;20435;-68
2022/01/07 08:23:50;;;;;;;1.00;0.90;;;16.80;34.90;;;;;;5070240;28;20449;-68
2022/01/07 08:26:17;;;;;;;1.10;1.00;;;16.80;34.80;;;;;;5070323;28;20425;-68
2022/01/07 08:28:49;;;;;;;0.87;0.87;;;16.80;34.90;;;;;;5070159;28;20449;-68
2022/01/07 08:36:28;;;;;;;1.00;0.90;;;16.80;34.80;;;;;;5069653;28;20801;-68
2022/01/07 08:38:55;;;;;;;0.90;0.90;;;16.80;34.80;;;;;;5070179;28;20427;-68
2022/01/07 08:41:23;;;;;;;0.80;0.80;;;16.80;34.70;;;;;;5067628;28;20447;-68
2022/01/07 08:43:49;;;;;;;0.80;0.77;;;16.80;35.50;;;;;;5069994;28;20420;-68
2022/01/07 08:46:15;;;;;;;1.60;0.80;;;16.80;34.60;;;;;;5069897;28;20423;-68
2022/01/07 08:48:40;;;;;;;1.03;0.93;;;16.80;34.50;;;;;;5069881;28;20217;-68
2022/01/07 08:51:07;;;;;;;0.80;0.80;;;16.90;34.50;;;;;;5070343;28;20217;-68
2022/01/07 08:53:33;;;;;;;2.70;1.00;;;16.90;34.40;;;;;;5051564;28;20720;-68
2022/01/07 08:55:59;;;;;;;1.10;1.00;;;16.90;34.30;;;;;;5069725;28;20433;-68
2022/01/07 08:58:25;;;;;;;1.00;0.90;;;16.90;34.10;;;;;;5069760;28;20450;-68
2022/01/07 09:00:50;;;;;;;0.80;0.80;;;16.90;34.00;;;;;;5069661;28;20629;-68
2022/01/07 09:03:16;;;;;;;0.90;0.80;;;16.90;33.90;;;;;;5069477;28;20463;-69
2022/01/07 09:05:42;;;;;;;1.10;1.00;;;16.90;33.90;;;;;;5069402;28;20233;-68
2022/01/07 09:08:10;;;;;;;0.77;0.77;;;17.00;33.80;;;;;;5069956;28;20209;-68
2022/01/07 09:10:36;;;;;;;0.83;0.80;;;17.00;33.70;;;;;;5069733;28;20289;-68
2022/01/07 09:13:02;;;;;;;1.20;0.90;;;17.00;33.70;;;;;;5069649;28;20420;-68
2022/01/07 09:15:28;;;;;;;0.97;0.97;;;17.00;33.60;;;;;;5069126;28;20964;-68
2022/01/07 09:17:54;;;;;;;1.10;0.90;;;17.00;33.60;;;;;;5069513;28;20967;-68
2022/01/07 09:20:21;;;;;;;1.10;1.00;;;17.00;33.50;;;;;;5069321;28;20263;-68
2022/01/07 09:22:47;;;;;;;1.30;1.20;;;17.10;33.60;;;;;;5069423;28;20654;-68
2022/01/07 09:25:12;;;;;;;1.13;0.80;;;17.10;33.50;;;;;;5069133;28;20428;-68
2022/01/07 09:27:40;;;;;;;1.00;0.90;;;17.10;33.50;;;;;;5069178;28;20213;-68
2022/01/07 09:30:07;;;;;;;0.80;0.80;;;17.10;33.50;;;;;;5069173;28;20555;-68
2022/01/07 09:32:33;;;;;;;0.83;0.83;;;17.10;33.50;;;;;;5068478;28;20420;-68
2022/01/07 09:34:58;;;;;;;0.87;0.80;;;17.10;34.30;;;;;;5051260;28;20413;-68
2022/01/07 09:37:24;;;;;;;0.70;0.67;;;17.10;33.50;;;;;;5069147;28;20643;-68
2022/01/07 09:39:50;;;;;;;0.90;0.80;;;17.10;33.50;;;;;;5069233;28;20210;-67
2022/01/07 09:42:15;;;;;;;0.80;0.70;;;17.20;34.20;;;;;;5069064;28;20225;-68
2022/01/07 09:44:43;;;;;;;1.10;1.00;;;17.20;33.40;;;;;;5051267;28;20220;-68
2022/01/07 09:47:13;;;;;;;0.80;0.80;;;17.20;33.40;;;;;;5066576;28;20217;-67
2022/01/07 09:49:40;;;;;;;0.93;0.80;;;17.20;33.30;;;;;;5068022;28;20434;-68
2022/01/07 09:52:06;;;;;;;1.00;0.90;;;17.20;33.40;;;;;;5069246;28;20492;-68
2022/01/07 09:54:34;;;;;;;0.80;0.80;;;17.20;33.30;;;;;;5069056;28;20443;-68
2022/01/07 09:57:00;;;;;;;2.03;0.90;;;17.20;33.30;;;;;;5068728;28;22160;-68
2022/01/07 09:59:26;;;;;;;0.83;0.80;;;17.20;33.30;;;;;;5068887;28;20423;-68
2022/01/07 10:01:58;;;;;;;1.00;0.87;;;17.20;33.30;;;;;;5069075;28;20496;-68
2022/01/07 10:04:40;;;;;;;0.80;0.80;;;17.20;33.30;;;;;;5068840;28;20241;-68
2022/01/07 10:07:21;;;;;;;0.60;0.60;;;17.20;33.30;;;;;;5068567;28;20416;-67
2022/01/07 10:10:07;;;;;;;1.00;1.00;;;17.20;33.30;;;;;;5068506;28;20413;-68
2022/01/07 10:13:04;;;;;;;0.77;0.77;;;17.20;33.40;;;;;;5067590;28;20425;-68
2022/01/07 10:15:33;;;;;;;0.60;0.60;;;17.20;33.40;;;;;;5068310;28;20957;-68
2022/01/07 10:18:05;;;;;;;0.80;0.80;;;17.20;33.50;;;;;;5068706;28;20499;-68
2022/01/07 10:20:40;;;;;;;0.80;0.73;;;17.20;33.40;;;;;;5067505;28;20405;-68
2022/01/07 10:23:15;;;;;;;0.80;0.80;;;17.20;33.50;;;;;;5068106;28;20787;-68
2022/01/07 10:25:44;;;;;;;0.97;0.80;;;17.20;33.50;;;;;;5066589;28;20462;-68
2022/01/07 10:28:11;;;;;;;0.80;0.80;;;17.20;33.50;;;;;;5051233;28;20905;-68
2022/01/07 10:30:41;;;;;;;0.73;0.70;;;17.20;33.50;;;;;;5068736;28;20447;-68
2022/01/07 10:33:28;;;;;;;0.70;0.67;;;17.20;33.50;;;;;;5068721;28;20428;-68
2022/01/07 10:35:56;;;;;;;0.70;0.70;;;17.20;33.50;;;;;;5067590;28;20926;-68
2022/01/07 10:38:27;;;;;;;0.77;0.77;;;17.20;33.60;;;;;;5068710;28;20413;-68
2022/01/07 10:41:01;;;;;;;0.77;0.70;;;17.20;33.60;;;;;;5068719;28;20413;-68
2022/01/07 10:43:32;;;;;;;0.80;0.80;;;17.20;33.70;;;;;;5066854;28;20433;-68
2022/01/07 10:46:00;;;;;;;0.93;0.90;;;17.20;33.80;;;;;;5054215;28;20976;-68
2022/01/07 10:48:40;;;;;;;0.80;0.80;;;17.20;33.80;;;;;;5072070;28;20462;-67
2022/01/07 10:51:23;;;;;;;0.70;0.70;;;17.20;33.70;;;;;;5069227;28;20863;-68
2022/01/07 10:53:54;;;;;;;0.90;0.70;;;17.20;33.80;;;;;;5071669;28;20421;-68
2022/01/07 10:56:22;;;;;;;0.80;0.70;;;17.20;33.90;;;;;;5071843;28;20437;-68
2022/01/07 10:58:55;;;;;;;0.63;0.63;;;17.20;34.00;;;;;;5072060;28;20977;-68
2022/01/07 11:01:20;;;;;;;0.70;0.70;;;17.20;34.00;;;;;;5071806;28;20534;-68
2022/01/07 11:03:47;;;;;;;0.87;0.80;;;17.10;34.00;;;;;;5070846;28;20571;-68
2022/01/07 11:06:13;;;;;;;0.80;0.70;;;17.20;34.20;;;;;;5071880;28;20697;-68
2022/01/07 11:08:40;;;;;;;0.70;0.70;;;17.20;34.20;;;;;;5070027;28;20459;-68
2022/01/07 11:11:06;;;;;;;0.70;0.70;;;17.20;34.30;;;;;;5053641;28;20236;-68
2022/01/07 11:13:34;;;;;;;0.63;0.60;;;17.20;34.40;;;;;;5071144;28;20835;-68
2022/01/07 11:16:01;;;;;;;0.70;0.63;;;17.20;34.50;;;;;;5071402;28;20237;-68
2022/01/07 11:18:27;;;;;;;0.83;0.83;;;17.20;34.50;;;;;;5069884;28;20432;-68
2022/01/07 11:20:57;;;;;;;0.80;0.80;;;17.10;34.40;;;;;;5053531;28;20508;-67
2022/01/07 11:23:25;;;;;;;0.80;0.77;;;17.10;34.50;;;;;;5071500;28;20221;-67
2022/01/07 11:26:04;;;;;;;0.70;0.67;;;17.10;34.50;;;;;;5071207;28;20849;-68
2022/01/07 11:28:31;;;;;;;0.70;0.67;;;17.10;34.60;;;;;;5070743;28;20526;-67
2022/01/07 11:31:04;;;;;;;0.80;0.70;;;17.10;34.60;;;;;;5071373;28;20502;-68
2022/01/07 11:33:31;;;;;;;0.70;0.70;;;17.10;34.70;;;;;;5071430;28;20459;-68
2022/01/07 11:35:58;;;;;;;0.60;0.60;;;17.10;34.70;;;;;;5067872;28;20433;-68
2022/01/07 11:38:37;;;;;;;0.87;0.70;;;17.10;34.70;;;;;;5071186;28;20425;-68
2022/01/07 11:41:04;;;;;;;0.77;0.70;;;17.10;34.60;;;;;;5069849;28;20421;-68
2022/01/07 11:43:35;;;;;;;1.10;0.70;;;17.10;34.50;;;;;;5070712;28;20417;-68
2022/01/07 11:46:20;;;;;;;0.70;0.70;;;17.10;34.40;;;;;;5068199;28;20425;-68
2022/01/07 11:48:46;;;;;;;0.80;0.80;;;17.10;34.30;;;;;;5067592;28;20421;-67
2022/01/07 11:51:14;;;;;;;0.70;0.70;;;17.10;34.30;;;;;;5071120;28;20507;-68
2022/01/07 11:53:39;;;;;;;0.90;0.90;;;17.20;34.30;;;;;;5070839;28;20225;-68
2022/01/07 11:56:25;;;;;;;0.87;0.80;;;17.20;34.30;;;;;;5070112;28;20771;-68
2022/01/07 11:58:55;;;;;;;0.80;0.80;;;17.20;34.20;;;;;;5068384;28;20302;-68
2022/01/07 12:01:29;;;;;;;0.77;0.60;;;17.20;34.20;;;;;;5070379;28;20474;-68
2022/01/07 12:04:00;;;;;;;0.70;0.70;;;17.20;34.20;;;;;;5067606;28;20448;-68
2022/01/07 12:06:27;;;;;;;0.70;0.60;;;17.20;34.10;;;;;;5070333;28;20421;-68
2022/01/07 12:09:13;;;;;;;0.70;0.70;;;17.20;34.10;;;;;;5070740;28;20571;-67
2022/01/07 12:11:51;;;;;;;0.80;0.80;;;17.20;34.10;;;;;;5068342;28;20492;-67
2022/01/07 12:14:19;;;;;;;0.73;0.60;;;17.20;34.10;;;;;;5070049;28;20894;-68
2022/01/07 12:16:49;;;;;;;0.80;0.63;;;17.20;34.00;;;;;;5069555;28;20520;-68
2022/01/07 12:19:21;;;;;;;0.70;0.60;;;17.20;34.00;;;;;;5070361;28;20413;-68
2022/01/07 12:21:55;;;;;;;0.70;0.70;;;17.20;34.00;;;;;;5070422;28;20422;-67
2022/01/07 12:24:26;;;;;;;0.97;0.80;;;17.20;34.00;;;;;;5069729;28;20413;-67
2022/01/07 12:27:07;;;;;;;0.80;0.70;;;17.20;34.00;;;;;;5070247;28;20443;-68
2022/01/07 12:29:38;;;;;;;0.80;0.70;;;17.20;34.00;;;;;;5070058;28;20488;-67
2022/01/07 12:32:06;;;;;;;0.70;0.60;;;17.30;34.10;;;;;;5051976;28;21162;-67
2022/01/07 12:34:37;;;;;;;0.90;0.80;;;17.30;34.20;;;;;;5069634;28;20454;-67
2022/01/07 12:37:09;;;;;;;0.70;0.60;;;17.30;34.20;;;;;;5039757;28;20446;-67
2022/01/07 12:39:38;;;;;;;0.70;0.70;;;17.30;34.20;;;;;;5038708;28;20511;-67
2022/01/07 12:42:06;;;;;;;0.70;0.60;;;17.30;34.20;;;;;;5069958;28;21146;-68
2022/01/07 12:44:36;;;;;;;0.70;0.70;;;17.30;34.20;;;;;;5069512;28;21150;-67
2022/01/07 12:47:03;;;;;;;0.80;0.80;;;17.30;34.10;;;;;;5069885;28;20526;-67
2022/01/07 12:49:37;;;;;;;0.80;0.80;;;17.30;34.10;;;;;;5069695;28;20424;-67
2022/01/07 12:52:17;;;;;;;0.80;0.80;;;17.30;34.20;;;;;;5069628;28;20436;-67
2022/01/07 12:55:00;;;;;;;0.80;0.77;;;17.30;34.10;;;;;;5067521;28;20408;-68
2022/01/07 12:57:39;;;;;;;0.80;0.70;;;17.30;35.00;;;;;;5069779;28;20476;-67
2022/01/07 13:00:26;;;;;;;0.70;0.70;;;17.30;34.20;;;;;;5068777;28;20498;-68